sensor_id;sensor_type;location;lat;lon;timestamp;P1;durP1;ratioP1;P2;durP2;ratioP2
25549;SDS011;13444;50.562;7.262;2022-08-19T00:01:12;13.55;;;12.15;;
25549;SDS011;13444;50.562;7.262;2022-08-19T00:03:38;13.75;;;12.55;;
25549;SDS011;13444;50.562;7.262;2022-08-19T00:06:04;14.55;;;13.15;;
25549;SDS011;13444;50.562;7.262;2022-08-19T00:08:29;12.90;;;11.80;;
25549;SDS011;13444;50.562;7.262;2022-08-19T00:10:56;13.63;;;12.23;;
25549;SDS011;13444;50.562;7.262;2022-08-19T00:13:22;13.93;;;12.63;;
25549;SDS011;13444;50.562;7.262;2022-08-19T00:15:47;13.38;;;11.98;;
25549;SDS011;13444;50.562;7.262;2022-08-19T00:18:13;13.23;;;11.98;;
25549;SDS011;13444;50.562;7.262;2022-08-19T00:20:38;13.35;;;12.05;;
25549;SDS011;13444;50.562;7.262;2022-08-19T00:23:05;14.27;;;12.77;;
25549;SDS011;13444;50.562;7.262;2022-08-19T00:25:31;13.93;;;12.43;;
25549;SDS011;13444;50.562;7.262;2022-08-19T00:27:57;13.10;;;11.93;;
25549;SDS011;13444;50.562;7.262;2022-08-19T00:30:24;14.57;;;12.45;;
25549;SDS011;13444;50.562;7.262;2022-08-19T00:32:52;12.55;;;11.27;;
25549;SDS011;13444;50.562;7.262;2022-08-19T00:35:20;12.95;;;11.50;;
25549;SDS011;13444;50.562;7.262;2022-08-19T00:37:46;11.43;;;10.43;;
25549;SDS011;13444;50.562;7.262;2022-08-19T00:40:13;14.38;;;11.60;;
25549;SDS011;13444;50.562;7.262;2022-08-19T00:42:40;11.60;;;10.50;;
25549;SDS011;13444;50.562;7.262;2022-08-19T00:45:10;13.35;;;10.73;;
25549;SDS011;13444;50.562;7.262;2022-08-19T00:47:39;11.25;;;10.15;;
25549;SDS011;13444;50.562;7.262;2022-08-19T00:50:05;11.52;;;10.32;;
25549;SDS011;13444;50.562;7.262;2022-08-19T00:52:33;11.93;;;10.82;;
25549;SDS011;13444;50.562;7.262;2022-08-19T00:55:02;10.15;;;9.15;;
25549;SDS011;13444;50.562;7.262;2022-08-19T00:57:32;11.85;;;10.60;;
25549;SDS011;13444;50.562;7.262;2022-08-19T01:00:03;14.00;;;11.18;;
25549;SDS011;13444;50.562;7.262;2022-08-19T01:02:33;12.18;;;10.88;;
25549;SDS011;13444;50.562;7.262;2022-08-19T01:05:00;11.70;;;10.50;;
25549;SDS011;13444;50.562;7.262;2022-08-19T01:07:29;11.70;;;9.90;;
25549;SDS011;13444;50.562;7.262;2022-08-19T01:09:55;11.95;;;10.55;;
25549;SDS011;13444;50.562;7.262;2022-08-19T01:12:20;12.13;;;10.88;;
25549;SDS011;13444;50.562;7.262;2022-08-19T01:14:46;10.98;;;9.98;;
25549;SDS011;13444;50.562;7.262;2022-08-19T01:17:14;12.90;;;11.07;;
25549;SDS011;13444;50.562;7.262;2022-08-19T01:19:41;12.80;;;10.85;;
25549;SDS011;13444;50.562;7.262;2022-08-19T01:24:37;15.23;;;12.75;;
25549;SDS011;13444;50.562;7.262;2022-08-19T01:27:06;13.13;;;11.73;;
25549;SDS011;13444;50.562;7.262;2022-08-19T01:29:32;12.15;;;10.85;;
25549;SDS011;13444;50.562;7.262;2022-08-19T01:32:00;11.38;;;10.27;;
25549;SDS011;13444;50.562;7.262;2022-08-19T01:34:26;13.07;;;11.73;;
25549;SDS011;13444;50.562;7.262;2022-08-19T01:36:51;15.35;;;11.73;;
25549;SDS011;13444;50.562;7.262;2022-08-19T01:39:21;11.68;;;10.48;;
25549;SDS011;13444;50.562;7.262;2022-08-19T01:41:49;11.60;;;10.40;;
25549;SDS011;13444;50.562;7.262;2022-08-19T01:44:15;13.15;;;11.43;;
25549;SDS011;13444;50.562;7.262;2022-08-19T01:46:42;12.48;;;11.20;;
25549;SDS011;13444;50.562;7.262;2022-08-19T01:49:08;11.27;;;10.13;;
25549;SDS011;13444;50.562;7.262;2022-08-19T01:51:35;10.70;;;9.40;;
25549;SDS011;13444;50.562;7.262;2022-08-19T01:54:01;11.45;;;10.35;;
25549;SDS011;13444;50.562;7.262;2022-08-19T01:56:26;10.63;;;9.52;;
25549;SDS011;13444;50.562;7.262;2022-08-19T01:58:55;10.73;;;9.70;;
25549;SDS011;13444;50.562;7.262;2022-08-19T02:01:26;11.73;;;10.63;;
25549;SDS011;13444;50.562;7.262;2022-08-19T02:03:51;10.60;;;9.50;;
25549;SDS011;13444;50.562;7.262;2022-08-19T02:06:18;11.43;;;10.10;;
25549;SDS011;13444;50.562;7.262;2022-08-19T02:08:44;12.65;;;9.70;;
25549;SDS011;13444;50.562;7.262;2022-08-19T02:11:17;12.40;;;10.98;;
25549;SDS011;13444;50.562;7.262;2022-08-19T02:13:45;12.07;;;9.48;;
25549;SDS011;13444;50.562;7.262;2022-08-19T02:16:11;11.00;;;9.90;;
25549;SDS011;13444;50.562;7.262;2022-08-19T02:18:36;11.05;;;9.95;;
25549;SDS011;13444;50.562;7.262;2022-08-19T02:21:02;10.07;;;9.10;;
25549;SDS011;13444;50.562;7.262;2022-08-19T02:23:27;13.82;;;10.70;;
25549;SDS011;13444;50.562;7.262;2022-08-19T02:25:53;11.73;;;10.52;;
25549;SDS011;13444;50.562;7.262;2022-08-19T02:28:18;12.90;;;10.60;;
25549;SDS011;13444;50.562;7.262;2022-08-19T02:30:44;11.82;;;10.55;;
25549;SDS011;13444;50.562;7.262;2022-08-19T02:33:10;10.85;;;9.85;;
25549;SDS011;13444;50.562;7.262;2022-08-19T02:35:36;10.10;;;9.10;;
25549;SDS011;13444;50.562;7.262;2022-08-19T02:38:01;12.57;;;10.30;;
25549;SDS011;13444;50.562;7.262;2022-08-19T02:40:49;11.13;;;9.73;;
25549;SDS011;13444;50.562;7.262;2022-08-19T02:43:16;12.13;;;10.20;;
25549;SDS011;13444;50.562;7.262;2022-08-19T02:45:43;10.93;;;9.75;;
25549;SDS011;13444;50.562;7.262;2022-08-19T02:48:08;11.05;;;10.00;;
25549;SDS011;13444;50.562;7.262;2022-08-19T02:50:37;11.85;;;10.65;;
25549;SDS011;13444;50.562;7.262;2022-08-19T02:53:03;12.18;;;10.98;;
25549;SDS011;13444;50.562;7.262;2022-08-19T02:55:29;12.10;;;10.80;;
25549;SDS011;13444;50.562;7.262;2022-08-19T02:57:55;12.75;;;11.45;;
25549;SDS011;13444;50.562;7.262;2022-08-19T03:00:21;11.98;;;10.77;;
25549;SDS011;13444;50.562;7.262;2022-08-19T03:02:48;12.63;;;11.20;;
25549;SDS011;13444;50.562;7.262;2022-08-19T03:05:14;13.63;;;11.25;;
25549;SDS011;13444;50.562;7.262;2022-08-19T03:07:40;13.60;;;12.20;;
25549;SDS011;13444;50.562;7.262;2022-08-19T03:10:06;12.23;;;11.02;;
25549;SDS011;13444;50.562;7.262;2022-08-19T03:12:35;14.68;;;13.27;;
25549;SDS011;13444;50.562;7.262;2022-08-19T03:15:02;12.27;;;10.95;;
25549;SDS011;13444;50.562;7.262;2022-08-19T03:17:32;12.93;;;11.73;;
25549;SDS011;13444;50.562;7.262;2022-08-19T03:19:58;12.60;;;11.00;;
25549;SDS011;13444;50.562;7.262;2022-08-19T03:22:24;14.75;;;11.50;;
25549;SDS011;13444;50.562;7.262;2022-08-19T03:24:50;12.13;;;10.85;;
25549;SDS011;13444;50.562;7.262;2022-08-19T03:27:16;11.48;;;10.27;;
25549;SDS011;13444;50.562;7.262;2022-08-19T03:29:42;11.57;;;10.48;;
25549;SDS011;13444;50.562;7.262;2022-08-19T03:32:08;11.35;;;10.15;;
25549;SDS011;13444;50.562;7.262;2022-08-19T03:34:35;11.07;;;9.98;;
25549;SDS011;13444;50.562;7.262;2022-08-19T03:37:06;13.02;;;10.65;;
25549;SDS011;13444;50.562;7.262;2022-08-19T03:39:35;11.05;;;9.80;;
25549;SDS011;13444;50.562;7.262;2022-08-19T03:42:02;10.63;;;9.60;;
25549;SDS011;13444;50.562;7.262;2022-08-19T03:44:28;10.57;;;9.48;;
25549;SDS011;13444;50.562;7.262;2022-08-19T03:46:55;11.32;;;10.13;;
25549;SDS011;13444;50.562;7.262;2022-08-19T03:49:23;12.27;;;10.95;;
25549;SDS011;13444;50.562;7.262;2022-08-19T03:51:51;11.50;;;10.40;;
25549;SDS011;13444;50.562;7.262;2022-08-19T03:54:19;13.50;;;10.43;;
25549;SDS011;13444;50.562;7.262;2022-08-19T03:56:48;12.25;;;10.90;;
25549;SDS011;13444;50.562;7.262;2022-08-19T03:59:16;12.30;;;11.00;;
25549;SDS011;13444;50.562;7.262;2022-08-19T04:01:44;11.00;;;9.73;;
25549;SDS011;13444;50.562;7.262;2022-08-19T04:04:10;11.23;;;10.13;;
25549;SDS011;13444;50.562;7.262;2022-08-19T04:06:36;14.00;;;9.52;;
25549;SDS011;13444;50.562;7.262;2022-08-19T04:09:04;11.18;;;10.00;;
25549;SDS011;13444;50.562;7.262;2022-08-19T04:11:33;10.27;;;9.27;;
25549;SDS011;13444;50.562;7.262;2022-08-19T04:14:06;10.35;;;9.30;;
25549;SDS011;13444;50.562;7.262;2022-08-19T04:16:32;9.07;;;8.23;;
25549;SDS011;13444;50.562;7.262;2022-08-19T04:19:02;10.10;;;9.15;;
25549;SDS011;13444;50.562;7.262;2022-08-19T04:21:29;10.60;;;9.50;;
25549;SDS011;13444;50.562;7.262;2022-08-19T04:23:55;11.50;;;10.15;;
25549;SDS011;13444;50.562;7.262;2022-08-19T04:26:26;10.30;;;8.73;;
25549;SDS011;13444;50.562;7.262;2022-08-19T04:28:56;11.18;;;9.30;;
25549;SDS011;13444;50.562;7.262;2022-08-19T04:31:22;10.02;;;9.02;;
25549;SDS011;13444;50.562;7.262;2022-08-19T04:33:53;11.15;;;9.85;;
25549;SDS011;13444;50.562;7.262;2022-08-19T04:36:22;10.43;;;9.43;;
25549;SDS011;13444;50.562;7.262;2022-08-19T04:38:49;10.05;;;8.98;;
25549;SDS011;13444;50.562;7.262;2022-08-19T04:41:18;9.88;;;8.98;;
25549;SDS011;13444;50.562;7.262;2022-08-19T04:44:02;10.65;;;9.18;;
25549;SDS011;13444;50.562;7.262;2022-08-19T04:46:28;11.10;;;9.95;;
25549;SDS011;13444;50.562;7.262;2022-08-19T04:48:55;12.70;;;9.70;;
25549;SDS011;13444;50.562;7.262;2022-08-19T04:51:21;11.30;;;9.57;;
25549;SDS011;13444;50.562;7.262;2022-08-19T04:53:47;11.00;;;9.68;;
25549;SDS011;13444;50.562;7.262;2022-08-19T04:56:14;10.80;;;9.70;;
25549;SDS011;13444;50.562;7.262;2022-08-19T04:58:42;11.77;;;9.73;;
25549;SDS011;13444;50.562;7.262;2022-08-19T05:01:12;15.52;;;10.25;;
25549;SDS011;13444;50.562;7.262;2022-08-19T05:03:49;9.90;;;8.88;;
25549;SDS011;13444;50.562;7.262;2022-08-19T05:06:15;11.57;;;9.85;;
25549;SDS011;13444;50.562;7.262;2022-08-19T05:08:43;10.82;;;9.27;;
25549;SDS011;13444;50.562;7.262;2022-08-19T05:11:16;10.35;;;9.25;;
25549;SDS011;13444;50.562;7.262;2022-08-19T05:13:45;14.25;;;10.57;;
25549;SDS011;13444;50.562;7.262;2022-08-19T05:16:12;10.93;;;9.73;;
25549;SDS011;13444;50.562;7.262;2022-08-19T05:18:38;13.23;;;9.90;;
25549;SDS011;13444;50.562;7.262;2022-08-19T05:21:23;11.70;;;10.02;;
25549;SDS011;13444;50.562;7.262;2022-08-19T05:24:08;10.95;;;8.73;;
25549;SDS011;13444;50.562;7.262;2022-08-19T05:26:35;13.23;;;9.98;;
25549;SDS011;13444;50.562;7.262;2022-08-19T05:29:02;11.40;;;10.07;;
25549;SDS011;13444;50.562;7.262;2022-08-19T05:31:28;11.05;;;9.73;;
25549;SDS011;13444;50.562;7.262;2022-08-19T05:33:54;12.38;;;9.88;;
25549;SDS011;13444;50.562;7.262;2022-08-19T05:36:20;13.23;;;11.93;;
25549;SDS011;13444;50.562;7.262;2022-08-19T05:38:46;12.10;;;10.90;;
25549;SDS011;13444;50.562;7.262;2022-08-19T05:41:13;16.20;;;12.27;;
25549;SDS011;13444;50.562;7.262;2022-08-19T05:43:40;13.70;;;11.73;;
25549;SDS011;13444;50.562;7.262;2022-08-19T05:46:06;16.10;;;11.45;;
25549;SDS011;13444;50.562;7.262;2022-08-19T05:48:33;15.07;;;11.27;;
25549;SDS011;13444;50.562;7.262;2022-08-19T05:51:03;17.25;;;12.55;;
25549;SDS011;13444;50.562;7.262;2022-08-19T05:53:31;13.88;;;11.20;;
25549;SDS011;13444;50.562;7.262;2022-08-19T05:56:03;12.25;;;11.00;;
25549;SDS011;13444;50.562;7.262;2022-08-19T05:58:29;13.25;;;11.63;;
25549;SDS011;13444;50.562;7.262;2022-08-19T06:00:57;13.13;;;11.73;;
25549;SDS011;13444;50.562;7.262;2022-08-19T06:03:22;14.15;;;12.43;;
25549;SDS011;13444;50.562;7.262;2022-08-19T06:05:49;14.02;;;12.52;;
25549;SDS011;13444;50.562;7.262;2022-08-19T06:08:14;14.43;;;11.35;;
25549;SDS011;13444;50.562;7.262;2022-08-19T06:10:40;13.57;;;12.10;;
25549;SDS011;13444;50.562;7.262;2022-08-19T06:13:05;12.95;;;11.52;;
25549;SDS011;13444;50.562;7.262;2022-08-19T06:15:31;12.95;;;11.20;;
25549;SDS011;13444;50.562;7.262;2022-08-19T06:17:56;15.70;;;12.23;;
25549;SDS011;13444;50.562;7.262;2022-08-19T06:20:22;12.98;;;11.43;;
25549;SDS011;13444;50.562;7.262;2022-08-19T06:22:48;13.75;;;11.70;;
25549;SDS011;13444;50.562;7.262;2022-08-19T06:25:15;16.15;;;13.25;;
25549;SDS011;13444;50.562;7.262;2022-08-19T06:27:42;17.10;;;14.18;;
25549;SDS011;13444;50.562;7.262;2022-08-19T06:30:08;14.63;;;12.20;;
25549;SDS011;13444;50.562;7.262;2022-08-19T06:32:36;15.23;;;13.60;;
25549;SDS011;13444;50.562;7.262;2022-08-19T06:35:02;14.00;;;12.50;;
25549;SDS011;13444;50.562;7.262;2022-08-19T06:37:28;15.40;;;11.82;;
25549;SDS011;13444;50.562;7.262;2022-08-19T06:39:54;14.30;;;11.90;;
25549;SDS011;13444;50.562;7.262;2022-08-19T06:42:19;14.40;;;11.52;;
25549;SDS011;13444;50.562;7.262;2022-08-19T06:44:46;12.93;;;11.73;;
25549;SDS011;13444;50.562;7.262;2022-08-19T06:47:15;13.80;;;12.23;;
25549;SDS011;13444;50.562;7.262;2022-08-19T06:49:42;25.48;;;14.45;;
25549;SDS011;13444;50.562;7.262;2022-08-19T06:52:09;15.05;;;13.00;;
25549;SDS011;13444;50.562;7.262;2022-08-19T06:54:39;16.27;;;13.02;;
25549;SDS011;13444;50.562;7.262;2022-08-19T06:57:06;17.38;;;15.57;;
25549;SDS011;13444;50.562;7.262;2022-08-19T06:59:34;17.15;;;15.43;;
25549;SDS011;13444;50.562;7.262;2022-08-19T07:02:02;18.92;;;15.30;;
25549;SDS011;13444;50.562;7.262;2022-08-19T07:04:31;22.55;;;20.15;;
25549;SDS011;13444;50.562;7.262;2022-08-19T07:07:06;20.95;;;18.75;;
25549;SDS011;13444;50.562;7.262;2022-08-19T07:09:35;19.75;;;17.67;;
25549;SDS011;13444;50.562;7.262;2022-08-19T07:12:04;25.08;;;19.50;;
25549;SDS011;13444;50.562;7.262;2022-08-19T07:14:31;18.30;;;14.82;;
25549;SDS011;13444;50.562;7.262;2022-08-19T07:17:03;29.50;;;23.98;;
25549;SDS011;13444;50.562;7.262;2022-08-19T07:19:33;25.75;;;21.83;;
25549;SDS011;13444;50.562;7.262;2022-08-19T07:22:01;25.27;;;21.00;;
25549;SDS011;13444;50.562;7.262;2022-08-19T07:24:28;22.80;;;19.55;;
25549;SDS011;13444;50.562;7.262;2022-08-19T07:26:56;29.35;;;24.75;;
25549;SDS011;13444;50.562;7.262;2022-08-19T07:29:25;26.77;;;23.63;;
25549;SDS011;13444;50.562;7.262;2022-08-19T07:31:52;31.98;;;26.33;;
25549;SDS011;13444;50.562;7.262;2022-08-19T07:34:21;34.33;;;26.05;;
25549;SDS011;13444;50.562;7.262;2022-08-19T07:36:48;24.10;;;19.40;;
25549;SDS011;13444;50.562;7.262;2022-08-19T07:39:16;31.05;;;25.42;;
25549;SDS011;13444;50.562;7.262;2022-08-19T07:41:46;31.15;;;24.30;;
25549;SDS011;13444;50.562;7.262;2022-08-19T07:44:12;28.55;;;22.90;;
25549;SDS011;13444;50.562;7.262;2022-08-19T07:46:40;25.30;;;20.00;;
25549;SDS011;13444;50.562;7.262;2022-08-19T07:49:09;25.75;;;21.58;;
25549;SDS011;13444;50.562;7.262;2022-08-19T07:51:54;21.08;;;16.13;;
25549;SDS011;13444;50.562;7.262;2022-08-19T07:54:22;21.73;;;18.45;;
25549;SDS011;13444;50.562;7.262;2022-08-19T07:56:49;22.52;;;18.30;;
25549;SDS011;13444;50.562;7.262;2022-08-19T07:59:16;23.55;;;16.45;;
25549;SDS011;13444;50.562;7.262;2022-08-19T08:01:42;16.00;;;13.77;;
25549;SDS011;13444;50.562;7.262;2022-08-19T08:04:08;15.90;;;14.02;;
25549;SDS011;13444;50.562;7.262;2022-08-19T08:06:53;17.80;;;14.13;;
25549;SDS011;13444;50.562;7.262;2022-08-19T08:09:39;16.95;;;14.18;;
25549;SDS011;13444;50.562;7.262;2022-08-19T08:12:09;17.27;;;13.30;;
25549;SDS011;13444;50.562;7.262;2022-08-19T08:14:41;15.68;;;12.35;;
25549;SDS011;13444;50.562;7.262;2022-08-19T08:17:09;18.05;;;13.55;;
25549;SDS011;13444;50.562;7.262;2022-08-19T08:19:36;14.98;;;12.30;;
25549;SDS011;13444;50.562;7.262;2022-08-19T08:22:03;19.67;;;15.25;;
25549;SDS011;13444;50.562;7.262;2022-08-19T08:24:30;16.73;;;11.18;;
25549;SDS011;13444;50.562;7.262;2022-08-19T08:26:57;14.57;;;10.77;;
25549;SDS011;13444;50.562;7.262;2022-08-19T08:29:28;20.15;;;13.15;;
25549;SDS011;13444;50.562;7.262;2022-08-19T08:31:54;12.82;;;10.43;;
25549;SDS011;13444;50.562;7.262;2022-08-19T08:34:20;17.52;;;12.27;;
25549;SDS011;13444;50.562;7.262;2022-08-19T08:36:46;12.63;;;10.57;;
25549;SDS011;13444;50.562;7.262;2022-08-19T08:39:13;15.50;;;11.77;;
25549;SDS011;13444;50.562;7.262;2022-08-19T08:44:16;11.25;;;9.70;;
25549;SDS011;13444;50.562;7.262;2022-08-19T08:46:50;15.18;;;10.77;;
25549;SDS011;13444;50.562;7.262;2022-08-19T08:49:26;12.77;;;10.43;;
25549;SDS011;13444;50.562;7.262;2022-08-19T08:52:11;12.80;;;10.35;;
25549;SDS011;13444;50.562;7.262;2022-08-19T08:54:48;10.43;;;9.23;;
25549;SDS011;13444;50.562;7.262;2022-08-19T09:00:10;13.40;;;9.70;;
25549;SDS011;13444;50.562;7.262;2022-08-19T09:02:45;10.38;;;7.75;;
25549;SDS011;13444;50.562;7.262;2022-08-19T09:05:11;13.35;;;8.85;;
25549;SDS011;13444;50.562;7.262;2022-08-19T09:07:46;11.68;;;8.77;;
25549;SDS011;13444;50.562;7.262;2022-08-19T09:13:21;14.32;;;11.10;;
25549;SDS011;13444;50.562;7.262;2022-08-19T09:16:00;14.77;;;11.18;;
25549;SDS011;13444;50.562;7.262;2022-08-19T09:18:44;15.80;;;11.30;;
25549;SDS011;13444;50.562;7.262;2022-08-19T09:21:18;13.15;;;9.98;;
25549;SDS011;13444;50.562;7.262;2022-08-19T09:23:45;11.95;;;9.43;;
25549;SDS011;13444;50.562;7.262;2022-08-19T09:26:12;13.00;;;9.70;;
25549;SDS011;13444;50.562;7.262;2022-08-19T09:28:40;14.73;;;13.23;;
25549;SDS011;13444;50.562;7.262;2022-08-19T09:31:13;10.48;;;9.13;;
25549;SDS011;13444;50.562;7.262;2022-08-19T09:33:40;10.95;;;9.27;;
25549;SDS011;13444;50.562;7.262;2022-08-19T09:36:09;11.50;;;9.00;;
25549;SDS011;13444;50.562;7.262;2022-08-19T09:38:35;14.90;;;11.15;;
25549;SDS011;13444;50.562;7.262;2022-08-19T09:41:02;10.18;;;8.13;;
25549;SDS011;13444;50.562;7.262;2022-08-19T09:43:29;14.73;;;10.35;;
25549;SDS011;13444;50.562;7.262;2022-08-19T09:45:56;10.45;;;8.40;;
25549;SDS011;13444;50.562;7.262;2022-08-19T09:48:21;15.32;;;12.10;;
25549;SDS011;13444;50.562;7.262;2022-08-19T09:50:47;11.65;;;9.80;;
25549;SDS011;13444;50.562;7.262;2022-08-19T09:53:14;12.75;;;8.80;;
25549;SDS011;13444;50.562;7.262;2022-08-19T09:55:43;8.43;;;7.40;;
25549;SDS011;13444;50.562;7.262;2022-08-19T09:58:09;12.30;;;6.95;;
25549;SDS011;13444;50.562;7.262;2022-08-19T10:00:36;14.15;;;7.05;;
25549;SDS011;13444;50.562;7.262;2022-08-19T10:03:03;9.75;;;7.50;;
25549;SDS011;13444;50.562;7.262;2022-08-19T10:05:28;11.43;;;7.47;;
25549;SDS011;13444;50.562;7.262;2022-08-19T10:08:13;10.90;;;7.30;;
25549;SDS011;13444;50.562;7.262;2022-08-19T10:10:42;8.73;;;6.80;;
25549;SDS011;13444;50.562;7.262;2022-08-19T10:13:08;9.82;;;7.45;;
25549;SDS011;13444;50.562;7.262;2022-08-19T10:15:34;11.15;;;8.45;;
25549;SDS011;13444;50.562;7.262;2022-08-19T10:18:00;13.52;;;7.57;;
25549;SDS011;13444;50.562;7.262;2022-08-19T10:20:26;14.35;;;9.50;;
25549;SDS011;13444;50.562;7.262;2022-08-19T10:22:51;10.77;;;7.90;;
25549;SDS011;13444;50.562;7.262;2022-08-19T10:25:17;13.88;;;10.90;;
25549;SDS011;13444;50.562;7.262;2022-08-19T10:27:43;9.02;;;7.30;;
25549;SDS011;13444;50.562;7.262;2022-08-19T10:30:08;9.27;;;6.93;;
25549;SDS011;13444;50.562;7.262;2022-08-19T10:32:35;10.80;;;8.70;;
25549;SDS011;13444;50.562;7.262;2022-08-19T10:35:02;12.95;;;8.73;;
25549;SDS011;13444;50.562;7.262;2022-08-19T10:37:32;10.45;;;8.90;;
25549;SDS011;13444;50.562;7.262;2022-08-19T10:39:59;15.80;;;12.75;;
25549;SDS011;13444;50.562;7.262;2022-08-19T10:42:24;15.15;;;10.82;;
25549;SDS011;13444;50.562;7.262;2022-08-19T10:44:50;20.33;;;14.60;;
25549;SDS011;13444;50.562;7.262;2022-08-19T10:47:15;14.85;;;11.68;;
25549;SDS011;13444;50.562;7.262;2022-08-19T10:49:41;14.95;;;13.38;;
25549;SDS011;13444;50.562;7.262;2022-08-19T10:52:25;11.52;;;8.38;;
25549;SDS011;13444;50.562;7.262;2022-08-19T10:55:01;9.43;;;8.40;;
25549;SDS011;13444;50.562;7.262;2022-08-19T10:57:46;11.88;;;8.68;;
25549;SDS011;13444;50.562;7.262;2022-08-19T11:00:12;10.35;;;7.60;;
25549;SDS011;13444;50.562;7.262;2022-08-19T11:02:38;15.75;;;10.55;;
25549;SDS011;13444;50.562;7.262;2022-08-19T11:05:04;15.65;;;12.02;;
25549;SDS011;13444;50.562;7.262;2022-08-19T11:07:30;11.60;;;9.52;;
25549;SDS011;13444;50.562;7.262;2022-08-19T11:09:56;9.23;;;7.78;;
25549;SDS011;13444;50.562;7.262;2022-08-19T11:12:21;10.02;;;8.73;;
25549;SDS011;13444;50.562;7.262;2022-08-19T11:14:47;12.18;;;9.35;;
25549;SDS011;13444;50.562;7.262;2022-08-19T11:17:14;13.20;;;9.60;;
25549;SDS011;13444;50.562;7.262;2022-08-19T11:19:41;12.48;;;10.00;;
25549;SDS011;13444;50.562;7.262;2022-08-19T11:22:07;12.38;;;11.07;;
25549;SDS011;13444;50.562;7.262;2022-08-19T11:24:34;13.23;;;10.23;;
25549;SDS011;13444;50.562;7.262;2022-08-19T11:27:02;13.45;;;12.15;;
25549;SDS011;13444;50.562;7.262;2022-08-19T11:29:30;10.35;;;9.23;;
25549;SDS011;13444;50.562;7.262;2022-08-19T11:31:56;8.98;;;7.30;;
25549;SDS011;13444;50.562;7.262;2022-08-19T11:34:22;6.35;;;5.75;;
25549;SDS011;13444;50.562;7.262;2022-08-19T11:36:50;9.98;;;8.57;;
25549;SDS011;13444;50.562;7.262;2022-08-19T11:39:17;10.07;;;7.28;;
25549;SDS011;13444;50.562;7.262;2022-08-19T11:41:45;7.75;;;6.05;;
25549;SDS011;13444;50.562;7.262;2022-08-19T11:44:11;10.02;;;9.02;;
25549;SDS011;13444;50.562;7.262;2022-08-19T11:46:39;13.30;;;9.15;;
25549;SDS011;13444;50.562;7.262;2022-08-19T11:49:06;13.68;;;8.25;;
25549;SDS011;13444;50.562;7.262;2022-08-19T11:51:34;11.40;;;8.60;;
25549;SDS011;13444;50.562;7.262;2022-08-19T11:54:00;11.10;;;6.97;;
25549;SDS011;13444;50.562;7.262;2022-08-19T11:56:26;11.63;;;6.63;;
25549;SDS011;13444;50.562;7.262;2022-08-19T11:58:53;7.53;;;5.65;;
25549;SDS011;13444;50.562;7.262;2022-08-19T12:01:21;9.85;;;6.75;;
25549;SDS011;13444;50.562;7.262;2022-08-19T12:03:49;9.32;;;6.47;;
25549;SDS011;13444;50.562;7.262;2022-08-19T12:06:18;13.02;;;8.43;;
25549;SDS011;13444;50.562;7.262;2022-08-19T12:08:48;10.95;;;8.27;;
25549;SDS011;13444;50.562;7.262;2022-08-19T12:11:14;10.48;;;7.68;;
25549;SDS011;13444;50.562;7.262;2022-08-19T12:13:41;6.75;;;5.30;;
25549;SDS011;13444;50.562;7.262;2022-08-19T12:16:10;5.55;;;5.03;;
25549;SDS011;13444;50.562;7.262;2022-08-19T12:18:38;8.85;;;5.35;;
25549;SDS011;13444;50.562;7.262;2022-08-19T12:21:06;4.85;;;4.40;;
25549;SDS011;13444;50.562;7.262;2022-08-19T12:23:33;4.70;;;4.15;;
25549;SDS011;13444;50.562;7.262;2022-08-19T12:25:58;7.20;;;5.57;;
25549;SDS011;13444;50.562;7.262;2022-08-19T12:28:24;7.65;;;5.00;;
25549;SDS011;13444;50.562;7.262;2022-08-19T12:30:50;6.03;;;5.40;;
25549;SDS011;13444;50.562;7.262;2022-08-19T12:33:16;5.70;;;4.90;;
25549;SDS011;13444;50.562;7.262;2022-08-19T12:35:43;6.45;;;5.22;;
25549;SDS011;13444;50.562;7.262;2022-08-19T12:38:11;10.93;;;5.38;;
25549;SDS011;13444;50.562;7.262;2022-08-19T12:40:37;6.25;;;4.65;;
25549;SDS011;13444;50.562;7.262;2022-08-19T12:43:04;10.88;;;5.65;;
25549;SDS011;13444;50.562;7.262;2022-08-19T12:45:31;7.57;;;5.47;;
25549;SDS011;13444;50.562;7.262;2022-08-19T12:47:56;8.00;;;5.80;;
25549;SDS011;13444;50.562;7.262;2022-08-19T12:50:23;7.97;;;6.10;;
25549;SDS011;13444;50.562;7.262;2022-08-19T12:52:49;8.05;;;6.07;;
25549;SDS011;13444;50.562;7.262;2022-08-19T12:55:14;7.95;;;6.63;;
25549;SDS011;13444;50.562;7.262;2022-08-19T12:57:40;6.75;;;5.90;;
25549;SDS011;13444;50.562;7.262;2022-08-19T13:00:07;6.78;;;6.10;;
25549;SDS011;13444;50.562;7.262;2022-08-19T13:02:40;7.35;;;6.60;;
25549;SDS011;13444;50.562;7.262;2022-08-19T13:05:09;9.25;;;7.45;;
25549;SDS011;13444;50.562;7.262;2022-08-19T13:07:37;9.82;;;7.38;;
25549;SDS011;13444;50.562;7.262;2022-08-19T13:10:04;7.18;;;6.28;;
25549;SDS011;13444;50.562;7.262;2022-08-19T13:12:31;6.65;;;5.60;;
25549;SDS011;13444;50.562;7.262;2022-08-19T13:14:57;9.68;;;7.28;;
25549;SDS011;13444;50.562;7.262;2022-08-19T13:17:22;6.68;;;5.97;;
25549;SDS011;13444;50.562;7.262;2022-08-19T13:19:48;8.52;;;7.15;;
25549;SDS011;13444;50.562;7.262;2022-08-19T13:22:15;8.45;;;7.70;;
25549;SDS011;13444;50.562;7.262;2022-08-19T13:24:40;10.07;;;9.05;;
25549;SDS011;13444;50.562;7.262;2022-08-19T13:27:06;8.27;;;7.47;;
25549;SDS011;13444;50.562;7.262;2022-08-19T13:29:32;8.25;;;7.40;;
25549;SDS011;13444;50.562;7.262;2022-08-19T13:32:16;8.30;;;7.45;;
25549;SDS011;13444;50.562;7.262;2022-08-19T13:35:01;9.60;;;7.78;;
25549;SDS011;13444;50.562;7.262;2022-08-19T13:37:27;9.10;;;8.15;;
25549;SDS011;13444;50.562;7.262;2022-08-19T13:40:09;8.90;;;8.00;;
25549;SDS011;13444;50.562;7.262;2022-08-19T13:42:42;9.00;;;8.10;;
25549;SDS011;13444;50.562;7.262;2022-08-19T13:45:09;8.65;;;7.75;;
25549;SDS011;13444;50.562;7.262;2022-08-19T13:47:35;10.85;;;8.48;;
25549;SDS011;13444;50.562;7.262;2022-08-19T13:50:08;10.55;;;8.85;;
25549;SDS011;13444;50.562;7.262;2022-08-19T13:52:35;10.80;;;9.75;;
25549;SDS011;13444;50.562;7.262;2022-08-19T13:55:01;10.05;;;9.00;;
25549;SDS011;13444;50.562;7.262;2022-08-19T13:57:29;11.55;;;9.45;;
25549;SDS011;13444;50.562;7.262;2022-08-19T13:59:55;10.30;;;9.18;;
25549;SDS011;13444;50.562;7.262;2022-08-19T14:02:22;11.68;;;8.73;;
25549;SDS011;13444;50.562;7.262;2022-08-19T14:04:48;8.60;;;7.80;;
25549;SDS011;13444;50.562;7.262;2022-08-19T14:07:13;9.20;;;8.30;;
25549;SDS011;13444;50.562;7.262;2022-08-19T14:09:39;9.60;;;8.70;;
25549;SDS011;13444;50.562;7.262;2022-08-19T14:12:04;9.05;;;8.15;;
25549;SDS011;13444;50.562;7.262;2022-08-19T14:14:30;9.10;;;8.23;;
25549;SDS011;13444;50.562;7.262;2022-08-19T14:16:56;8.77;;;7.65;;
25549;SDS011;13444;50.562;7.262;2022-08-19T14:19:21;8.77;;;7.32;;
25549;SDS011;13444;50.562;7.262;2022-08-19T14:21:47;8.75;;;6.38;;
25549;SDS011;13444;50.562;7.262;2022-08-19T14:24:13;6.63;;;6.03;;
25549;SDS011;13444;50.562;7.262;2022-08-19T14:26:38;8.45;;;7.63;;
25549;SDS011;13444;50.562;7.262;2022-08-19T14:29:04;8.63;;;6.97;;
25549;SDS011;13444;50.562;7.262;2022-08-19T14:31:29;8.13;;;6.10;;
25549;SDS011;13444;50.562;7.262;2022-08-19T14:33:54;8.23;;;6.00;;
25549;SDS011;13444;50.562;7.262;2022-08-19T14:36:20;7.60;;;6.28;;
25549;SDS011;13444;50.562;7.262;2022-08-19T14:38:46;7.53;;;5.82;;
25549;SDS011;13444;50.562;7.262;2022-08-19T14:41:21;6.47;;;5.65;;
25549;SDS011;13444;50.562;7.262;2022-08-19T14:43:48;6.88;;;5.22;;
25549;SDS011;13444;50.562;7.262;2022-08-19T14:46:16;7.18;;;5.38;;